Time;durP1;ratioP1;P1;durP2;ratioP2;P2;SDS_P1;SDS_P2;PMS_P1;PMS_P2;Temp;Humidity;BMP_temperature;BMP_pressure;BME280_temperature;BME280_humidity;BME280_pressure;Samples;Min_cycle;Max_cycle;Signal;HPM_P1;HPM_P2
2021/05/14 00:02:05;;;;;;;;;65.50;52.00;;;;;16.70;64.05;100612.47;4897357;29;11368;-75
2021/05/14 00:05:01;;;;;;;;;64.00;50.50;;;;;16.58;64.66;100610.69;4896505;29;11264;-74
2021/05/14 00:07:57;;;;;;;;;60.00;48.50;;;;;16.69;64.51;100610.88;4897104;29;11376;-75
2021/05/14 00:10:52;;;;;;;;;59.25;47.25;;;;;16.65;64.87;100612.78;4889625;29;11174;-75
2021/05/14 00:14:03;;;;;;;;;60.00;48.75;;;;;16.66;64.74;100611.59;4896928;29;11458;-76
2021/05/14 00:16:59;;;;;;;;;63.50;51.75;;;;;16.61;65.26;100609.13;4884296;29;11204;-74
2021/05/14 00:19:54;;;;;;;;;58.75;49.00;;;;;16.70;65.39;100611.69;4896894;29;11559;-75
2021/05/14 00:22:50;;;;;;;;;64.75;53.00;;;;;16.71;65.36;100597.34;4897147;29;11199;-75
2021/05/14 00:25:45;;;;;;;;;62.50;50.25;;;;;16.70;65.59;100601.31;4897811;29;11678;-75
2021/05/14 00:28:41;;;;;;;;;65.00;53.50;;;;;16.66;65.75;100601.25;4896824;29;11751;-74
2021/05/14 00:31:36;;;;;;;;;69.25;54.75;;;;;16.76;65.70;100593.44;4884258;29;11460;-75
2021/05/14 00:34:04;;;;;;;;;66.75;53.25;;;;;16.76;65.76;100590.63;4897641;29;11794;-75
2021/05/14 00:37:00;;;;;;;;;67.50;55.75;;;;;16.77;65.92;100598.63;4896524;29;11658;-75
2021/05/14 00:39:56;;;;;;;;;75.50;66.25;;;;;16.91;65.57;100589.69;4884200;29;11664;-75
2021/05/14 00:42:51;;;;;;;;;65.00;53.75;;;;;16.96;65.29;100594.94;4896515;29;11764;-76
2021/05/14 00:45:47;;;;;;;;;73.75;61.50;;;;;16.91;65.81;100590.47;4884038;29;12514;-76
2021/05/14 00:48:42;;;;;;;;;75.50;61.50;;;;;16.60;66.55;100601.94;4902735;29;11739;-76
2021/05/14 00:51:10;;;;;;;;;78.00;64.50;;;;;16.56;66.67;100593.50;4916655;29;12432;-76
2021/05/14 00:54:07;;;;;;;;;75.50;60.75;;;;;16.36;67.40;100594.75;4924951;29;11604;-76
2021/05/14 00:57:07;;;;;;;;;78.00;64.75;;;;;16.27;68.40;100595.00;4902516;29;11569;-76
2021/05/14 01:00:05;;;;;;;;;73.00;57.50;;;;;16.13;69.20;100589.16;4914407;29;12326;-76
2021/05/14 01:03:00;;;;;;;;;71.00;56.25;;;;;16.04;69.59;100583.03;4915311;29;11592;-76
2021/05/14 01:05:56;;;;;;;;;68.25;56.00;;;;;16.12;69.31;100590.34;4914892;29;11596;-76
2021/05/14 01:08:51;;;;;;;;;72.00;57.75;;;;;15.86;70.41;100588.25;4926334;29;11597;-77
2021/05/14 01:11:47;;;;;;;;;64.00;51.00;;;;;15.73;70.83;100593.19;4897236;29;11600;-76
2021/05/14 01:14:42;;;;;;;;;69.00;55.00;;;;;15.53;70.73;100592.34;4907289;29;11712;-76
2021/05/14 01:17:38;;;;;;;;;68.00;53.50;;;;;15.65;70.12;100596.22;4898908;29;11694;-76
2021/05/14 01:20:07;;;;;;;;;63.00;50.00;;;;;15.66;69.82;100598.63;4901284;29;11671;-76
2021/05/14 01:23:04;;;;;;;;;58.75;48.25;;;;;15.52;70.21;100593.53;4899424;29;11303;-76
2021/05/14 01:25:59;;;;;;;;;64.00;52.75;;;;;15.27;71.44;100592.19;4899741;29;11346;-76
2021/05/14 01:28:55;;;;;;;;;53.50;43.50;;;;;15.28;71.53;100585.44;4887251;29;11665;-76
2021/05/14 01:31:51;;;;;;;;;63.50;52.50;;;;;15.33;71.41;100581.56;4899401;29;11659;-76
2021/05/14 01:34:47;;;;;;;;;71.00;55.50;;;;;15.45;71.12;100584.22;4899577;29;12452;-77
2021/05/14 01:37:42;;;;;;;;;67.50;53.00;;;;;15.44;71.22;100594.56;4886933;29;11654;-76
2021/05/14 01:40:38;;;;;;;;;72.00;56.25;;;;;15.04;72.92;100588.50;4887006;29;11665;-76
2021/05/14 01:43:34;;;;;;;;;61.25;50.25;;;;;14.98;73.50;100590.75;4887032;29;12390;-76
2021/05/14 01:46:04;;;;;;;;;62.00;51.00;;;;;14.98;73.74;100588.78;4900406;29;11685;-76
2021/05/14 01:48:49;;;;;;;;;66.75;53.25;;;;;15.08;73.21;100579.03;4867961;29;11586;-77
2021/05/14 01:51:33;;;;;;;;;61.75;51.00;;;;;15.08;72.85;100592.97;4894658;29;11684;-76
2021/05/14 01:54:28;;;;;;;;;63.50;50.50;;;;;15.09;72.76;100583.44;4900397;29;11626;-76
2021/05/14 01:57:24;;;;;;;;;51.75;42.00;;;;;15.20;71.89;100587.28;4900781;29;11560;-76
2021/05/14 02:00:21;;;;;;;;;58.00;48.25;;;;;15.13;72.39;100578.75;4899115;29;11590;-76
2021/05/14 02:03:17;;;;;;;;;58.00;48.25;;;;;15.02;73.01;100581.28;4887067;29;11564;-76
2021/05/14 02:06:13;;;;;;;;;59.50;49.75;;;;;14.75;74.56;100585.03;4886722;29;11383;-76
2021/05/14 02:09:08;;;;;;;;;65.50;52.50;;;;;14.77;74.43;100587.47;4900572;29;11583;-76
2021/05/14 02:12:04;;;;;;;;;62.25;49.50;;;;;14.78;74.28;100589.88;4917987;29;11556;-76
2021/05/14 02:15:00;;;;;;;;;59.25;47.75;;;;;14.76;74.55;100583.88;4917967;29;11579;-77
2021/05/14 02:17:55;;;;;;;;;50.50;43.50;;;;;14.82;74.31;100584.41;4908858;29;11305;-77
2021/05/14 02:20:51;;;;;;;;;61.25;49.75;;;;;14.91;73.87;100579.44;4918020;29;11581;-76
2021/05/14 02:23:47;;;;;;;;;66.75;51.00;;;;;14.97;73.49;100575.22;4900414;29;11587;-76
2021/05/14 02:26:44;;;;;;;;;56.25;46.00;;;;;14.93;73.67;100579.88;4898765;29;12473;-76
2021/05/14 02:29:39;;;;;;;;;60.50;49.75;;;;;14.94;73.55;100571.16;4898488;29;11695;-76
2021/05/14 02:32:35;;;;;;;;;61.50;50.50;;;;;15.04;72.92;100572.59;4896496;29;11570;-76
2021/05/14 02:35:31;;;;;;;;;62.25;51.25;;;;;15.05;73.04;100563.06;4917455;29;11825;-76
2021/05/14 02:38:26;;;;;;;;;64.25;51.25;;;;;14.98;73.37;100543.41;4904697;29;11586;-76
2021/05/14 02:41:22;;;;;;;;;66.25;53.25;;;;;14.88;73.53;100550.38;4886747;29;11642;-76
2021/05/14 02:43:49;;;;;;;;;53.00;44.00;;;;;14.96;73.46;100554.13;4883036;29;11582;-76
2021/05/14 02:46:45;;;;;;;;;51.50;42.50;;;;;14.96;73.80;100554.13;4892290;29;11575;-76
2021/05/14 02:49:41;;;;;;;;;56.50;46.50;;;;;14.78;75.18;100566.81;4906773;29;11648;-76
2021/05/14 02:52:17;;;;;;;;;64.50;52.00;;;;;14.45;76.56;100562.44;4901151;29;11569;-75
2021/05/14 02:55:13;;;;;;;;;65.25;53.50;;;;;14.71;76.47;100571.03;4917077;29;11634;-77
2021/05/14 02:58:09;;;;;;;;;63.00;51.00;;;;;14.74;76.37;100575.09;4916325;29;12449;-76
2021/05/14 03:01:05;;;;;;;;;55.50;45.25;;;;;14.82;76.01;100562.13;4917422;29;11639;-75
2021/05/14 03:04:04;;;;;;;;;54.50;44.00;;;;;14.92;75.64;100561.56;4904247;29;11310;-76
2021/05/14 03:07:01;;;;;;;;;50.00;41.00;;;;;14.96;75.17;100559.69;4916960;29;11597;-76
2021/05/14 03:09:43;;;;;;;;;43.00;39.00;;;;;15.09;75.15;100565.91;4915513;29;11143;-76
2021/05/14 03:12:12;;;;;;;;;45.50;39.25;;;;;15.16;74.82;100561.31;4897909;29;10995;-77
2021/05/14 03:15:08;;;;;;;;;41.00;37.75;;;;;15.28;74.52;100568.75;4897544;29;10862;-77
2021/05/14 03:18:04;;;;;;;;;38.00;35.25;;;;;15.30;74.77;100566.38;4898599;29;10817;-79
2021/05/14 03:21:01;;;;;;;;;39.75;35.75;;;;;15.35;75.42;100574.47;4899317;29;10787;-78
2021/05/14 03:23:58;;;;;;;;;37.50;35.00;;;;;15.54;74.89;100570.84;4897326;29;10943;-76
2021/05/14 03:26:56;;;;;;;;;40.75;36.75;;;;;15.54;75.25;100571.66;4884738;29;10767;-78
2021/05/14 03:29:51;;;;;;;;;56.75;48.00;;;;;15.78;76.51;100569.75;4885996;29;10503;-79
2021/05/14 03:32:48;;;;;;;;;33.75;31.50;;;;;15.95;75.19;100571.28;4885317;29;11033;-76
2021/05/14 03:35:43;;;;;;;;;39.25;33.50;;;;;16.29;76.98;100575.09;4897003;29;10454;-76
2021/05/14 03:38:39;;;;;;;;;39.00;35.00;;;;;16.25;74.63;100571.41;4898724;29;10528;-77
2021/05/14 03:41:50;;;;;;;;;37.25;35.00;;;;;16.20;74.62;100572.53;4896911;29;10411;-76
2021/05/14 03:44:45;;;;;;;;;43.75;38.50;;;;;16.52;75.52;100584.25;4897259;29;10237;-79
2021/05/14 03:47:41;;;;;;;;;44.50;39.00;;;;;17.07;77.82;100579.13;4895992;29;10340;-79
2021/05/14 03:50:27;;;;;;;;;53.00;43.25;;;;;17.32;76.46;100576.66;4883576;29;10294;-79
2021/05/14 03:52:55;;;;;;;;;54.25;46.00;;;;;17.36;75.40;100576.72;4898592;29;10749;-76
2021/05/14 03:55:50;;;;;;;;;56.25;46.50;;;;;17.50;75.08;100576.91;4885823;29;10705;-78
2021/05/14 03:58:19;;;;;;;;;47.00;39.50;;;;;17.55;74.26;100578.56;4898194;29;10654;-78
2021/05/14 04:01:16;;;;;;;;;45.50;36.75;;;;;17.77;75.27;100584.03;4897232;29;9974;-78
2021/05/14 04:04:11;;;;;;;;;43.50;38.25;;;;;17.90;74.74;100583.78;4897392;29;9959;-76
2021/05/14 04:07:07;;;;;;;;;33.00;32.00;;;;;17.82;73.52;100588.50;4897265;29;9996;-76
2021/05/14 04:10:11;;;;;;;;;29.33;25.67;;;;;17.91;72.61;100593.78;4901442;29;9337;-77
2021/05/14 04:16:35;;;;;;;;;36.00;33.33;;;;;18.47;73.73;100587.94;4915830;29;9182;-79
2021/05/14 04:19:31;;;;;;;;;27.33;26.00;;;;;18.71;72.87;100595.00;4914205;29;9413;-78
2021/05/14 04:22:27;;;;;;;;;26.33;26.33;;;;;18.61;70.81;100595.66;4903186;29;9214;-75
2021/05/14 04:25:23;;;;;;;;;34.67;32.67;;;;;18.78;71.79;100588.63;4903951;29;9186;-78
2021/05/14 04:28:18;;;;;;;;;35.33;32.00;;;;;18.87;70.49;100603.09;4915394;29;9446;-77
2021/05/14 04:31:14;;;;;;;;;40.00;33.33;;;;;19.08;70.86;100603.22;4915604;29;9280;-78
2021/05/14 04:33:42;;;;;;;;;40.33;33.33;;;;;19.02;69.68;100593.59;4916611;29;9408;-80
2021/05/14 04:36:10;;;;;;;;;40.67;35.67;;;;;19.06;69.46;100593.63;4916445;29;9212;-79
2021/05/14 04:38:38;;;;;;;;;28.25;28.25;;;;;19.19;69.80;100597.72;4916769;29;9343;-79
2021/05/14 04:41:06;;;;;;;;;36.25;33.50;;;;;19.30;69.25;100598.56;4900001;29;8851;-79
2021/05/14 04:43:34;;;;;;;;;27.00;27.00;;;;;19.38;68.98;100594.59;4916704;29;8866;-78
2021/05/14 04:46:02;;;;;;;;;26.00;26.00;;;;;19.47;68.56;100601.84;4916476;29;8869;-79
2021/05/14 04:48:42;;;;;;;;;33.25;32.00;;;;;19.75;68.13;100604.00;4916532;29;8863;-79
2021/05/14 04:51:10;;;;;;;;;29.50;28.75;;;;;19.76;67.39;100600.00;4916376;29;8863;-80
2021/05/14 04:53:39;;;;;;;;;36.25;31.00;;;;;19.89;67.71;100602.03;4909793;29;8873;-80
2021/05/14 04:56:08;;;;;;;;;20.75;19.75;;;;;19.84;66.96;100607.22;4880491;29;8873;-80
2021/05/14 04:58:38;;;;;;;;;24.25;23.50;;;;;19.86;67.50;100600.03;4897564;29;8893;-80
2021/05/14 05:01:07;;;;;;;;;21.00;20.25;;;;;20.05;67.26;100604.50;4897399;29;8880;-78
2021/05/14 05:04:04;;;;;;;;;22.25;22.00;;;;;20.20;66.72;100603.31;4896790;29;9658;-79
2021/05/14 05:06:59;;;;;;;;;12.75;12.75;;;;;20.19;67.17;100598.09;4896345;29;8952;-78
2021/05/14 05:09:55;;;;;;;;;9.50;9.50;;;;;20.28;67.27;100604.13;4896474;29;9572;-79
2021/05/14 05:12:50;;;;;;;;;15.00;14.25;;;;;20.33;66.55;100597.31;4894351;29;8869;-78
2021/05/14 05:15:46;;;;;;;;;12.50;12.50;;;;;20.44;66.48;100593.34;4887598;29;8884;-79
2021/05/14 05:18:14;;;;;;;;;12.25;11.25;;;;;20.55;66.22;100593.38;4880111;29;8857;-79
2021/05/14 05:21:11;;;;;;;;;14.50;14.50;;;;;20.77;65.73;100594.94;4884565;29;8907;-79
2021/05/14 05:23:39;;;;;;;;;16.25;16.25;;;;;20.72;66.03;100592.53;4880789;29;8989;-81
2021/05/14 05:26:06;;;;;;;;;8.00;8.00;;;;;;;;4881003;29;8933;-81
2021/05/14 05:29:03;;;;;;;;;46.75;36.75;;;;;21.09;65.24;100591.28;4896401;29;8879;-80
2021/05/14 05:31:59;;;;;;;;;13.00;13.00;;;;;21.31;64.69;100595.66;4883249;29;9065;-80
2021/05/14 05:34:58;;;;;;;;;10.00;10.00;;;;;21.32;64.25;100597.28;4896134;29;9619;-79
2021/05/14 05:37:54;;;;;;;;;12.00;12.00;;;;;21.44;63.85;100601.66;4896366;29;8861;-80
2021/05/14 05:40:22;;;;;;;;;8.00;8.00;;;;;21.64;63.48;100604.81;4897660;29;8853;-79
2021/05/14 05:43:04;;;;;;;;;59.25;48.00;;;;;21.60;63.30;100596.38;4881327;29;8886;-83
2021/05/14 05:45:59;;;;;;;;;14.00;14.00;;;;;21.76;63.49;100601.50;4877400;29;8887;-79
2021/05/14 05:48:45;;;;;;;;;12.75;12.75;;;;;21.86;62.64;100619.59;4877561;29;9606;-85
2021/05/14 05:51:41;;;;;;;;;20.25;20.25;;;;;21.90;62.78;100612.72;4876994;29;8893;-77
2021/05/14 05:54:09;;;;;;;;;10.00;10.00;;;;;21.96;62.50;100618.72;4878836;29;8887;-79
2021/05/14 05:56:36;;;;;;;;;11.50;10.75;;;;;21.93;62.51;100619.56;4861843;29;8856;-79
2021/05/14 05:59:06;;;;;;;;;13.50;13.50;;;;;22.11;62.33;100625.91;4878624;29;9625;-81
2021/05/14 06:02:02;;;;;;;;;8.75;8.75;;;;;22.19;61.90;100624.66;4876576;29;8871;-81
2021/05/14 06:04:57;;;;;;;;;8.75;8.75;;;;;22.29;61.95;100620.16;4882445;29;8852;-80
2021/05/14 06:07:53;;;;;;;;;11.00;11.00;;;;;22.46;61.44;100629.69;4880085;29;8878;-81
2021/05/14 06:10:51;;;;;;;;;10.00;10.00;;;;;22.60;60.83;100614.69;4891725;29;8889;-81
2021/05/14 06:13:19;;;;;;;;;10.00;10.00;;;;;22.38;61.35;100617.66;4900451;29;8888;-80
2021/05/14 06:16:17;;;;;;;;;12.50;12.50;;;;;22.62;60.95;100620.72;4899392;29;8941;-81
2021/05/14 06:19:20;;;;;;;;;7.25;7.25;;;;;22.64;60.68;100616.28;4900099;29;8847;-80
2021/05/14 06:22:16;;;;;;;;;8.25;7.75;;;;;23.01;60.08;100611.97;4905194;29;8962;-80
2021/05/14 06:24:44;;;;;;;;;5.00;5.00;;;;;22.92;59.81;100615.25;4919032;29;8848;-81
2021/05/14 06:27:43;;;;;;;;;8.25;8.25;;;;;22.93;59.63;100616.88;4918102;29;8855;-79
2021/05/14 06:30:41;;;;;;;;;6.75;6.75;;;;;22.33;60.73;100620.16;4905476;29;8879;-80
2021/05/14 06:33:37;;;;;;;;;8.00;8.00;;;;;22.29;61.94;100625.00;4917665;29;9677;-80
2021/05/14 06:36:34;;;;;;;;;11.00;11.00;;;;;22.17;62.16;100621.44;4916922;29;8831;-81
2021/05/14 06:39:29;;;;;;;;;7.25;7.25;;;;;22.27;60.99;100630.25;4917957;29;8890;-80
2021/05/14 06:41:57;;;;;;;;;7.50;7.50;;;;;22.18;61.48;100616.63;4918667;29;8957;-79
2021/05/14 06:44:26;;;;;;;;;7.50;7.50;;;;;21.68;63.17;100625.28;4918573;29;8950;-79
2021/05/14 06:47:22;;;;;;;;;9.00;9.00;;;;;21.44;64.04;100624.16;4916957;29;8873;-79
2021/05/14 06:50:21;;;;;;;;;9.50;9.50;;;;;21.82;63.35;100625.22;4916726;29;8863;-79
2021/05/14 06:53:03;;;;;;;;;9.75;8.75;;;;;21.54;64.00;100626.13;4918512;29;8871;-79
2021/05/14 06:55:44;;;;;;;;;8.50;8.50;;;;;21.28;65.07;100627.41;4915930;29;8877;-79
2021/05/14 06:58:14;;;;;;;;;10.00;10.00;;;;;21.67;63.93;100615.22;4901906;29;9696;-82
2021/05/14 07:01:09;;;;;;;;;8.00;8.00;;;;;21.54;64.52;100628.13;4917661;29;8871;-80
2021/05/14 07:04:05;;;;;;;;;9.75;9.75;;;;;21.62;63.55;100632.53;4917285;29;8835;-79
2021/05/14 07:07:01;;;;;;;;;8.50;8.25;;;;;21.48;64.14;100627.78;4917103;29;8890;-79
2021/05/14 07:09:56;;;;;;;;;9.75;9.75;;;;;21.73;63.13;100638.13;4917160;29;8839;-78
2021/05/14 07:12:29;;;;;;;;;9.50;9.50;;;;;21.57;64.00;100630.16;4883065;29;8849;-78
2021/05/14 07:15:24;;;;;;;;;7.75;7.75;;;;;22.01;62.35;100640.03;4899221;29;8870;-80
2021/05/14 07:18:20;;;;;;;;;11.00;11.00;;;;;21.95;63.12;100638.84;4890418;29;8944;-78
2021/05/14 07:21:15;;;;;;;;;9.25;9.25;;;;;21.45;64.81;100636.22;4905831;29;8941;-82
2021/05/14 07:24:36;;;;;;;;;9.50;9.50;;;;;21.72;63.27;100637.34;4904133;29;8860;-80
2021/05/14 07:27:33;;;;;;;;;9.50;9.25;;;;;21.44;63.86;100643.06;4899164;29;8861;-78
2021/05/14 07:30:29;;;;;;;;;9.25;9.25;;;;;21.64;63.50;100647.03;4897871;29;8881;-76
2021/05/14 07:33:24;;;;;;;;;8.75;8.75;;;;;21.95;63.03;100650.13;4885226;29;8842;-76
2021/05/14 07:36:20;;;;;;;;;10.00;10.00;;;;;22.45;62.09;100648.63;4896234;29;8863;-78
2021/05/14 07:39:15;;;;;;;;;12.00;12.00;;;;;22.73;61.21;100653.25;4903633;29;8973;-78
2021/05/14 07:41:57;;;;;;;;;8.50;8.50;;;;;22.89;60.69;100658.38;4902635;29;8891;-77
2021/05/14 07:44:53;;;;;;;;;9.25;9.25;;;;;22.92;59.87;100656.75;4892759;29;8863;-76
2021/05/14 07:47:48;;;;;;;;;9.50;8.75;;;;;23.35;59.21;100671.25;4916264;29;8852;-80
2021/05/14 07:50:16;;;;;;;;;9.00;9.00;;;;;23.52;58.65;100667.44;4917363;29;9573;-80
2021/05/14 07:52:53;;;;;;;;;7.60;7.40;;;;;23.35;59.20;100676.88;4916525;29;8855;-79
2021/05/14 07:55:21;;;;;;;;;7.60;7.60;;;;;23.38;59.52;100678.06;4915545;29;8877;-77
2021/05/14 07:57:49;;;;;;;;;9.40;9.40;;;;;23.28;58.86;100674.94;4900345;29;9676;-76
2021/05/14 08:00:17;;;;;;;;;7.20;7.20;;;;;23.30;57.92;100680.97;4899570;29;8855;-75
2021/05/14 08:03:13;;;;;;;;;8.40;8.40;;;;;23.70;57.43;100680.59;4897422;29;8858;-81
2021/05/14 08:06:08;;;;;;;;;8.60;8.60;;;;;23.37;59.06;100679.28;4896817;29;8853;-78
2021/05/14 08:09:07;;;;;;;;;7.80;7.80;;;;;23.77;57.68;100677.66;4898497;29;8877;-77
2021/05/14 08:12:05;;;;;;;;;8.60;8.60;;;;;24.36;54.47;100671.66;4916554;29;8882;-80
2021/05/14 08:15:02;;;;;;;;;7.20;7.20;;;;;24.25;55.20;100666.16;4915528;29;8918;-82
2021/05/14 08:17:58;;;;;;;;;7.80;7.80;;;;;24.85;52.87;100666.47;4896958;29;8868;-77
2021/05/14 08:20:54;;;;;;;;;5.00;5.00;;;;;24.91;51.61;100670.41;4898138;29;8905;-77
2021/05/14 08:23:49;;;;;;;;;7.80;7.80;;;;;25.19;52.47;100667.09;4897431;29;8877;-82
2021/05/14 08:26:17;;;;;;;;;6.60;6.60;;;;;25.35;50.65;100668.44;4897497;29;8869;-79
2021/05/14 08:29:13;;;;;;;;;3.80;3.80;;;;;25.13;51.00;100665.22;4901824;29;8861;-77
2021/05/14 08:31:54;;;;;;;;;6.20;6.20;;;;;25.33;49.95;100668.88;4916351;29;8851;-79
2021/05/14 08:34:21;;;;;;;;;6.00;6.00;;;;;25.32;50.59;100667.28;4915715;29;8876;-79
2021/05/14 08:36:49;;;;;;;;;6.60;6.60;;;;;25.47;49.53;100676.31;4916202;29;8977;-80
2021/05/14 08:39:44;;;;;;;;;9.20;8.60;;;;;25.57;49.84;100677.34;4915687;29;8894;-79
2021/05/14 08:42:42;;;;;;;;;8.80;6.40;;;;;25.77;49.45;100678.97;4915847;29;9606;-79
2021/05/14 08:45:38;;;;;;;;;8.20;8.20;;;;;25.74;49.12;100679.84;4915271;29;8882;-78
2021/05/14 08:48:38;;;;;;;;;13.80;13.00;;;;;26.00;49.03;100688.63;4902862;29;8871;-79
2021/05/14 08:51:36;;;;;;;;;8.80;8.80;;;;;25.28;50.46;100682.72;4915961;29;9731;-79
2021/05/14 08:54:35;;;;;;;;;9.60;9.60;;;;;25.88;50.20;100697.78;4908657;29;8981;-78
2021/05/14 08:57:30;;;;;;;;;18.00;18.00;;;;;26.12;48.98;100690.78;4908157;29;8909;-82
2021/05/14 08:59:58;;;;;;;;;16.00;15.80;;;;;25.96;48.93;100697.19;4923271;29;8870;-77
2021/05/14 09:02:26;;;;;;;;;16.20;15.80;;;;;26.15;48.80;100694.78;4898470;29;8843;-76
2021/05/14 09:04:54;;;;;;;;;15.00;15.00;;;;;25.85;49.46;100693.81;4897349;29;9584;-78
2021/05/14 09:07:22;;;;;;;;;20.40;20.40;;;;;25.74;49.34;100696.81;4915177;29;8930;-79
2021/05/14 09:10:18;;;;;;;;;13.40;13.40;;;;;26.26;47.45;100696.16;4916491;29;8890;-79
2021/05/14 09:13:16;;;;;;;;;8.80;8.40;;;;;26.02;46.03;100706.78;4932828;29;8939;-79
2021/05/14 09:16:11;;;;;;;;;7.00;7.00;;;;;25.92;46.03;100707.03;4934087;29;8892;-77
2021/05/14 09:18:40;;;;;;;;;8.60;8.60;;;;;25.89;46.79;100708.69;4935455;29;8872;-78
2021/05/14 09:21:08;;;;;;;;;6.60;6.60;;;;;25.63;47.72;100701.88;4935631;29;8967;-77
2021/05/14 09:23:38;;;;;;;;;8.60;8.60;;;;;26.08;48.00;100701.41;4935653;29;9571;-79
2021/05/14 09:26:09;;;;;;;;;9.20;9.20;;;;;25.84;48.52;100700.72;4935037;29;8884;-77
2021/05/14 09:28:47;;;;;;;;;14.80;14.80;;;;;26.04;48.27;100698.63;4935476;29;8883;-77
2021/05/14 09:31:22;;;;;;;;;9.40;9.40;;;;;25.94;48.20;100701.72;4918783;29;8845;-79
2021/05/14 09:33:56;;;;;;;;;13.60;12.80;;;;;26.04;48.78;100700.69;4918516;29;8960;-78
2021/05/14 09:36:31;;;;;;;;;9.00;9.00;;;;;26.35;48.54;100701.22;4935204;29;8833;-78
2021/05/14 09:39:00;;;;;;;;;7.00;7.00;;;;;25.84;50.09;100706.38;4920876;29;8911;-77
2021/05/14 09:41:43;;;;;;;;;7.40;7.40;;;;;25.89;48.82;100700.19;4921157;29;8888;-78
2021/05/14 09:44:15;;;;;;;;;9.00;9.00;;;;;26.36;48.71;100711.31;4887685;29;8900;-77
2021/05/14 09:46:46;;;;;;;;;9.00;9.00;;;;;26.27;48.23;100723.25;4919602;29;8867;-80
2021/05/14 09:49:19;;;;;;;;;7.00;7.00;;;;;26.55;47.85;100706.88;4919727;29;8851;-80
2021/05/14 09:51:53;;;;;;;;;8.60;8.60;;;;;25.82;49.58;100710.84;4903572;29;8851;-77
2021/05/14 09:54:28;;;;;;;;;8.40;8.40;;;;;25.85;48.58;100705.13;4919596;29;8961;-76
2021/05/14 09:57:05;;;;;;;;;9.20;8.80;;;;;25.94;49.63;100701.72;4902712;29;8859;-78
2021/05/14 09:59:34;;;;;;;;;8.20;6.20;;;;;26.13;48.31;100695.22;4919651;29;8881;-78
2021/05/14 10:02:04;;;;;;;;;11.00;10.20;;;;;26.43;47.51;100707.56;4919266;29;8922;-80
2021/05/14 10:05:11;;;;;;;;;5.60;5.60;;;;;26.07;47.70;100699.81;4917973;29;8860;-76
2021/05/14 10:07:41;;;;;;;;;4.20;4.20;;;;;26.63;45.72;100693.34;4903474;29;8863;-77
2021/05/14 10:10:11;;;;;;;;;11.80;11.80;;;;;26.82;46.29;100693.25;4928919;29;8989;-77
2021/05/14 10:12:48;;;;;;;;;6.20;6.20;;;;;26.69;45.06;100697.25;4907376;29;8893;-79
2021/05/14 10:15:44;;;;;;;;;6.80;6.00;;;;;26.96;44.69;100699.81;4889711;29;8857;-76
2021/05/14 10:18:44;;;;;;;;;5.80;5.80;;;;;27.55;42.39;100695.88;4911925;29;8852;-77
2021/05/14 10:21:43;;;;;;;;;5.20;5.20;;;;;27.72;42.58;100697.44;4937323;29;8968;-78
2021/05/14 10:24:51;;;;;;;;;6.60;6.60;;;;;28.06;40.32;100690.38;4936775;29;8957;-76
2021/05/14 10:27:47;;;;;;;;;4.80;4.80;;;;;27.82;39.40;100690.66;4918318;29;8851;-77
2021/05/14 10:30:58;;;;;;;;;4.00;4.00;;;;;28.10;37.85;100697.56;4918215;29;8942;-76
2021/05/14 10:33:56;;;;;;;;;4.60;4.60;;;;;28.27;37.80;100692.56;4905405;29;8870;-80
2021/05/14 10:36:52;;;;;;;;;3.80;3.80;;;;;28.32;36.35;100689.22;4886478;29;8879;-77
2021/05/14 10:39:47;;;;;;;;;5.00;5.00;;;;;28.74;37.05;100691.94;4915835;29;9583;-77
2021/05/14 10:42:43;;;;;;;;;3.80;3.80;;;;;28.88;36.38;100685.78;4924222;29;9588;-79
2021/05/14 10:45:43;;;;;;;;;6.00;6.00;;;;;28.57;36.62;100693.31;4924567;29;8859;-78
2021/05/14 10:49:00;;;;;;;;;4.00;4.00;;;;;28.47;36.16;100684.66;4900975;29;9593;-83
2021/05/14 10:51:57;;;;;;;;;5.00;5.00;;;;;27.74;36.87;100692.09;4891651;29;8859;-80
2021/05/14 10:54:53;;;;;;;;;3.80;3.80;;;;;27.99;36.92;100685.72;4885974;29;8863;-84
2021/05/14 10:57:49;;;;;;;;;4.00;4.00;;;;;28.03;36.02;100686.41;4885826;29;8883;-78
2021/05/14 11:00:22;;;;;;;;;2.80;2.80;;;;;28.09;35.18;100686.63;4899119;29;8870;-77
2021/05/14 11:03:19;;;;;;;;;3.40;3.40;;;;;28.36;36.13;100689.09;4892286;29;8962;-83
2021/05/14 11:06:19;;;;;;;;;0.00;0.00;;;;;28.76;33.54;100698.78;4906928;29;8849;-81
2021/05/14 11:09:17;;;;;;;;;2.00;2.00;;;;;29.04;32.29;100682.81;4898250;29;8869;-78
2021/05/14 11:12:12;;;;;;;;;3.00;3.00;;;;;29.24;32.21;100673.22;4885887;29;8841;-80
2021/05/14 11:15:14;;;;;;;;;1.60;1.60;;;;;28.70;32.26;100680.69;4886251;29;9611;-78
2021/05/14 11:18:17;;;;;;;;;2.00;2.00;;;;;29.19;31.71;100680.28;4897988;29;8845;-81
2021/05/14 11:21:17;;;;;;;;;3.00;3.00;;;;;28.95;31.59;100677.03;4891619;29;8870;-83
2021/05/14 11:24:10;;;;;;;;;2.00;2.00;;;;;29.53;31.11;100670.97;4904546;29;8882;-83
2021/05/14 11:27:12;;;;;;;;;4.00;4.00;;;;;29.62;29.13;100673.09;4904694;29;8885;-81
2021/05/14 11:30:13;;;;;;;;;3.00;3.00;;;;;29.57;29.55;100673.69;4904116;29;8887;-79
2021/05/14 11:32:44;;;;;;;;;0.00;0.00;;;;;29.66;29.61;100675.81;4918071;29;8863;-81
2021/05/14 11:35:40;;;;;;;;;2.00;2.00;;;;;29.85;29.05;100669.00;4904202;29;9778;-79
2021/05/14 11:38:36;;;;;;;;;2.00;2.00;;;;;29.93;28.98;100669.50;4910839;29;8855;-80
2021/05/14 11:41:04;;;;;;;;;2.60;2.60;;;;;29.69;28.96;100663.50;4926484;29;8942;-81
2021/05/14 11:44:02;;;;;;;;;1.00;1.00;;;;;29.51;27.77;100664.91;4912581;29;8966;-79
2021/05/14 11:47:00;;;;;;;;;2.80;2.80;;;;;29.24;28.48;100656.13;4917094;29;8870;-83
2021/05/14 11:49:57;;;;;;;;;0.60;0.60;;;;;29.59;27.15;100659.75;4903948;29;8905;-82
2021/05/14 11:52:53;;;;;;;;;1.00;1.00;;;;;29.23;27.46;100657.38;4903840;29;8874;-82
2021/05/14 11:55:53;;;;;;;;;0.80;0.80;;;;;29.23;27.01;100649.63;4915566;29;8892;-81
2021/05/14 11:58:24;;;;;;;;;2.60;1.00;;;;;29.61;26.98;100646.66;4892753;29;8965;-81
2021/05/14 12:01:14;;;;;;;;;1.00;1.00;;;;;29.75;26.81;100650.22;4902994;29;8855;-81
2021/05/14 12:03:56;;;;;;;;;0.20;0.20;;;;;29.74;25.87;100660.81;4902509;29;8950;-83
2021/05/14 12:06:24;;;;;;;;;0.80;0.80;;;;;29.63;24.65;100649.81;4900247;29;8866;-78
2021/05/14 12:09:20;;;;;;;;;2.20;2.20;;;;;29.55;24.97;100651.34;4915526;29;8878;-81
2021/05/14 12:12:24;;;;;;;;;0.00;0.00;;;;;29.46;23.89;100644.75;4893507;29;8865;-78
2021/05/14 12:15:24;;;;;;;;;1.00;1.00;;;;;29.98;24.60;100652.59;4889855;29;8877;-76
2021/05/14 12:18:21;;;;;;;;;0.80;0.80;;;;;29.58;23.79;100635.38;4904331;29;8839;-80
2021/05/14 12:21:32;;;;;;;;;0.00;0.00;;;;;30.32;23.85;100656.59;4907364;29;8865;-82
2021/05/14 12:24:22;;;;;;;;;0.40;0.40;;;;;30.32;23.66;100645.19;4939958;29;8861;-81
2021/05/14 12:27:21;;;;;;;;;0.40;0.40;;;;;30.57;23.24;100639.25;4940837;29;8861;-79
2021/05/14 12:30:18;;;;;;;;;1.60;1.60;;;;;29.80;25.63;100632.53;4922309;29;8896;-77
2021/05/14 12:33:13;;;;;;;;;2.00;2.00;;;;;30.29;25.25;100641.22;4917034;29;8885;-80
2021/05/14 12:36:07;;;;;;;;;1.00;1.00;;;;;30.72;24.99;100634.56;4912325;29;8886;-79
2021/05/14 12:38:40;;;;;;;;;1.20;1.20;;;;;30.73;23.83;100636.16;4900516;29;8896;-82
2021/05/14 12:41:27;;;;;;;;;3.00;1.60;;;;;30.85;23.19;100630.81;4916192;29;9798;-81
2021/05/14 12:44:35;;;;;;;;;1.00;1.00;;;;;31.19;22.95;100641.94;4903456;29;8871;-80
2021/05/14 12:47:31;;;;;;;;;2.40;2.40;;;;;30.86;24.47;100638.09;4916731;29;8894;-76
2021/05/14 12:50:25;;;;;;;;;1.40;1.40;;;;;30.87;23.82;100626.22;4916659;29;8882;-77
2021/05/14 12:53:21;;;;;;;;;1.00;1.00;;;;;30.72;23.29;100634.56;4921006;29;9701;-76
2021/05/14 12:56:24;;;;;;;;;1.00;1.00;;;;;30.92;22.97;100630.50;4919549;29;8981;-78
2021/05/14 12:59:19;;;;;;;;;1.80;1.80;;;;;30.89;23.37;100635.09;4915621;29;8878;-78
2021/05/14 13:01:52;;;;;;;;;1.40;1.40;;;;;30.76;23.84;100643.00;4899714;29;8871;-78
2021/05/14 13:05:00;;;;;;;;;2.00;2.00;;;;;30.52;23.60;100631.34;4903089;29;9089;-78
2021/05/14 13:08:00;;;;;;;;;0.60;0.60;;;;;30.71;24.44;100635.06;4905675;29;8847;-79
2021/05/14 13:11:11;;;;;;;;;0.00;0.00;;;;;30.80;23.75;100643.63;4917071;29;8902;-77